Es ist keine erhöhte Aufmerksamkeit aufgrund des Wetters notwendig.   -   Es gibt keine Warnungen.

Nearby METAR Reports

 

LEZL - Sevilla, Spain
Distance from station: ONO 8km
aktuell: 15/12/2017 03:30
Mist, stark bewölkt
Mist, stark bewölkt
 Wind von SSW
Wind: SSW 6 km/h
Temperatur: 13°C
Taupunkt: 13°C
Luftfeuchte: 100%
Luftdruck: 1019 hPa
Zusammenfassung: Mist
Clouds: stark bewölkt
Visibility: 3 km
Cloud details: teilweise bewölkt 61 m
stark bewölkt 1067 m
2017/12/15 02:30 LEZL 150230Z 20003KT 170V230 2500 BR SCT002 BKN035 13/13 Q1019 NOSIG
LEMO - Morón, Spain
Distance from station: SO 43km
aktuell: 01/01/1970 01:00
NOT Current
unable to load LEMO data RC=
unable to load LEMO data RC=
 
LEJR - Jeréz, Spain
Distance from station: S 71km
aktuell: 15/12/2017 03:30
Mist, stark bewölkt
Mist, stark bewölkt
 Wind von NO
Wind: NO 2 km/h
Temperatur: 10°C
Taupunkt: 10°C
Luftfeuchte: 100%
Luftdruck: 1020 hPa
Zusammenfassung: Mist
Clouds: stark bewölkt
Visibility: 2 km
Cloud details: stark bewölkt 488 m
2017/12/15 02:30 LEJR 150230Z AUTO 05001KT 1500 BR BKN016/// 10/10 Q1020
 
LERT - Rota, Spain
Distance from station: SSW 89km
aktuell: 15/12/2017 03:00
Few Clouds
Few Clouds
 Wind von WNW
Wind: WNW 7 km/h
Temperatur: 13°C
Taupunkt: 12°C
Luftfeuchte: 94%
Luftdruck: 1020 hPa
Clouds: Few Clouds
Visibility: 10 km
Cloud details: Few Clouds 1036 m
2017/12/15 02:00 LERT 150200Z 29004KT 9999 FEW034 13/12 Q1020 TEMPO 4000 BR BKN014
LEMG - Málaga, Spain
Distance from station: OSO 157km
aktuell: 15/12/2017 03:30
teilweise bewölkt
teilweise bewölkt
 Wind von WNW
Wind: WNW 19 km/h
Temperatur: 16°C
Taupunkt: 11°C
Luftfeuchte: 72%
Luftdruck: 1017 hPa
Clouds: teilweise bewölkt
Visibility: 10 km
Cloud details: teilweise bewölkt 1219 m
2017/12/15 02:30 LEMG 150230Z 29010KT 9999 SCT040 16/11 Q1017 NOSIG
LEBA - Córdoba, Spain
Distance from station: ONO 115km
aktuell: 15/12/2017 03:30
Mist, geschlossene Wolkendecke
Mist, geschlossene Wolkendecke
 Wind von varies
Wind: varies 2 km/h
Temperatur: 10°C
Taupunkt: 10°C
Luftfeuchte: 100%
Luftdruck: 1019 hPa
Zusammenfassung: Mist
Clouds: geschlossene Wolkendecke
Visibility: 2 km
Cloud details: geschlossene Wolkendecke 91 m
2017/12/15 02:30 LEBA 150230Z AUTO VRB01KT 1600 BR OVC003/// 10/10 Q1019
 
LEGR - Granada, Spain
Distance from station: O 198km
aktuell: 15/12/2017 03:30
geschlossene Wolkendecke
geschlossene Wolkendecke
 Wind von varies
Wind: varies 2 km/h
Temperatur: 9°C
Taupunkt: 8°C
Luftfeuchte: 94%
Luftdruck: 1019 hPa
Clouds: geschlossene Wolkendecke
Visibility: 8 km
Cloud details: stark bewölkt 152 m
geschlossene Wolkendecke 1006 m
2017/12/15 02:30 LEGR 150230Z AUTO VRB01KT 8000 BKN005/// OVC033/// 09/08 Q1019
LEAM - Almería, Spain
Distance from station: O 326km
aktuell: 15/12/2017 03:30
klar
klar
 Wind von NNO
Wind: NNO 4 km/h
Temperatur: 11°C
Taupunkt: 8°C
Luftfeuchte: 82%
Luftdruck: 1014 hPa
Zusammenfassung: klar
Visibility: greater than 10 km
2017/12/15 02:30 LEAM 150230Z AUTO 03002KT CAVOK 11/08 Q1014
LEMD - Madrid/Barajas, Spain
Distance from station: NNO 402km
aktuell: 15/12/2017 03:30
Few Clouds
Few Clouds
 Wind von W
Wind: W 31 km/h
Temperatur: 12°C
Taupunkt: 5°C
Luftfeuchte: 63%
Luftdruck: 1013 hPa
Clouds: Few Clouds
Visibility: 10 km
Cloud details: Few Clouds 1524 m
2017/12/15 02:30 LEMD 150230Z 26017KT 240V300 9999 FEW050 12/05 Q1013 NOSIG
 
LEVD - Valladolid, Spain
Distance from station: N 492km
aktuell: 14/12/2017 21:30
NOT Current
geschlossene Wolkendecke
geschlossene Wolkendecke
 Wind von WSW
Wind: WSW 33 km/h
Temperatur: 9°C
Wind Chill: 5°C
Taupunkt: 8°C
Luftfeuchte: 94%
Luftdruck: 1014 hPa
Clouds: geschlossene Wolkendecke
Visibility: 10 km
Cloud details: geschlossene Wolkendecke 152 m
2017/12/14 20:30 LEVD 142030Z 25018KT 9999 OVC005 09/08 Q1014
LEBL - Barcelona, Spain
Distance from station: NO 816km
aktuell: 15/12/2017 03:30
Few Clouds
Few Clouds
 Wind von NNW
Wind: NNW 17 km/h
Temperatur: 12°C
Taupunkt: 9°C
Luftfeuchte: 82%
Luftdruck: 1008 hPa
Clouds: Few Clouds
Visibility: 10 km
Cloud details: Few Clouds 914 m
2017/12/15 02:30 LEBL 150230Z 33009KT 9999 FEW030 12/09 Q1008 NOSIG
LEVC - Valencia, Spain
Distance from station: ONO 535km
aktuell: 15/12/2017 03:30
klar
klar
 Wind von WSW
Wind: WSW 20 km/h
Temperatur: 16°C
Taupunkt: 10°C
Luftfeuchte: 68%
Luftdruck: 1010 hPa
Zusammenfassung: klar
Visibility: greater than 10 km
2017/12/15 02:30 LEVC 150230Z 24011KT CAVOK 16/10 Q1010 NOSIG